Statesville, North Carolina
Current Conditions -  °F | °C
As of 1:55 AM on Sunday 21 Dec 2014 (Local Time) from KSVH Reporting Station
Overcast Overcast  
Wind Chill: 39°   Ceiling: 1700
Heat Index: 39°   Visibility: 10mi
Dew Point: 35°   Wind: 0mph
Humidity: 84%   Direction: NA
Pressure: 30.24"   Gusts: NA
Location:  35.79°N, 80.89°W
Report Text: KSVH 210655Z AUTO 00000KT 10SM OVC017 04/02 A3024 RMK AO2 T00410017
Loading
Personal Weather Stations






























Interactive Weather Map New forecast layout! Learn more

10-Day Weather Forecast

Advertisements
Track Severe Weather on mobile